sensor_id;sensor_type;location;lat;lon;timestamp;temperature;humidity
582;DHT22;277;50.074;8.436;2023-07-20T00:01:12;20.00;99.90
582;DHT22;277;50.074;8.436;2023-07-20T00:03:40;20.10;99.90
582;DHT22;277;50.074;8.436;2023-07-20T00:06:08;20.20;99.90
582;DHT22;277;50.074;8.436;2023-07-20T00:08:36;20.20;99.90
582;DHT22;277;50.074;8.436;2023-07-20T00:11:04;20.30;99.90
582;DHT22;277;50.074;8.436;2023-07-20T00:13:33;20.20;99.90
582;DHT22;277;50.074;8.436;2023-07-20T00:16:01;20.30;99.90
582;DHT22;277;50.074;8.436;2023-07-20T00:18:29;20.30;99.90
582;DHT22;277;50.074;8.436;2023-07-20T00:20:57;20.40;99.90
582;DHT22;277;50.074;8.436;2023-07-20T00:23:26;20.50;99.90
582;DHT22;277;50.074;8.436;2023-07-20T00:25:54;20.50;99.90
582;DHT22;277;50.074;8.436;2023-07-20T00:28:22;20.50;99.90
582;DHT22;277;50.074;8.436;2023-07-20T00:30:51;20.50;99.90
582;DHT22;277;50.074;8.436;2023-07-20T00:33:19;20.40;99.90
582;DHT22;277;50.074;8.436;2023-07-20T00:35:47;20.30;99.90
582;DHT22;277;50.074;8.436;2023-07-20T00:38:15;20.20;99.90
582;DHT22;277;50.074;8.436;2023-07-20T00:40:43;20.10;99.90
582;DHT22;277;50.074;8.436;2023-07-20T00:43:11;19.80;99.90
582;DHT22;277;50.074;8.436;2023-07-20T00:45:39;19.70;99.90
582;DHT22;277;50.074;8.436;2023-07-20T00:48:09;19.60;99.90
582;DHT22;277;50.074;8.436;2023-07-20T00:50:37;19.50;99.90
582;DHT22;277;50.074;8.436;2023-07-20T00:53:07;19.40;99.90
582;DHT22;277;50.074;8.436;2023-07-20T00:55:35;19.30;99.90
582;DHT22;277;50.074;8.436;2023-07-20T00:58:03;19.30;99.90
582;DHT22;277;50.074;8.436;2023-07-20T01:00:31;19.30;99.90
582;DHT22;277;50.074;8.436;2023-07-20T01:02:59;19.30;99.90
582;DHT22;277;50.074;8.436;2023-07-20T01:05:38;19.30;99.90
582;DHT22;277;50.074;8.436;2023-07-20T01:08:14;19.40;99.90
582;DHT22;277;50.074;8.436;2023-07-20T01:10:50;19.30;99.90
582;DHT22;277;50.074;8.436;2023-07-20T01:13:20;19.50;99.90
582;DHT22;277;50.074;8.436;2023-07-20T01:15:56;19.80;99.90
582;DHT22;277;50.074;8.436;2023-07-20T01:18:24;19.80;99.90
582;DHT22;277;50.074;8.436;2023-07-20T01:20:58;20.00;99.90
582;DHT22;277;50.074;8.436;2023-07-20T01:26:43;20.10;99.90
582;DHT22;277;50.074;8.436;2023-07-20T01:29:26;20.00;99.90
582;DHT22;277;50.074;8.436;2023-07-20T01:32:01;20.20;99.90
582;DHT22;277;50.074;8.436;2023-07-20T01:34:31;20.10;99.90
582;DHT22;277;50.074;8.436;2023-07-20T01:36:59;20.20;99.90
582;DHT22;277;50.074;8.436;2023-07-20T01:39:29;20.10;99.90
582;DHT22;277;50.074;8.436;2023-07-20T01:41:57;20.00;99.90
582;DHT22;277;50.074;8.436;2023-07-20T01:44:25;19.80;99.90
582;DHT22;277;50.074;8.436;2023-07-20T01:46:53;19.80;99.90
582;DHT22;277;50.074;8.436;2023-07-20T01:49:23;19.80;99.90
582;DHT22;277;50.074;8.436;2023-07-20T01:51:51;19.70;99.90
582;DHT22;277;50.074;8.436;2023-07-20T01:54:18;19.70;99.90
582;DHT22;277;50.074;8.436;2023-07-20T01:56:48;19.80;99.90
582;DHT22;277;50.074;8.436;2023-07-20T01:59:15;20.10;99.90
582;DHT22;277;50.074;8.436;2023-07-20T02:01:44;20.20;99.90
582;DHT22;277;50.074;8.436;2023-07-20T02:04:12;20.20;99.90
582;DHT22;277;50.074;8.436;2023-07-20T02:06:41;20.20;99.90
582;DHT22;277;50.074;8.436;2023-07-20T02:09:09;20.20;99.90
582;DHT22;277;50.074;8.436;2023-07-20T02:11:37;20.20;99.90
582;DHT22;277;50.074;8.436;2023-07-20T02:14:05;20.30;99.90
582;DHT22;277;50.074;8.436;2023-07-20T02:16:33;20.20;99.90
582;DHT22;277;50.074;8.436;2023-07-20T02:19:00;20.40;99.90
582;DHT22;277;50.074;8.436;2023-07-20T02:21:28;20.20;99.90
582;DHT22;277;50.074;8.436;2023-07-20T02:23:58;20.20;99.90
582;DHT22;277;50.074;8.436;2023-07-20T02:26:26;19.80;99.90
582;DHT22;277;50.074;8.436;2023-07-20T02:28:53;19.70;99.90
582;DHT22;277;50.074;8.436;2023-07-20T02:31:21;19.50;99.90
582;DHT22;277;50.074;8.436;2023-07-20T02:33:49;19.40;99.90
582;DHT22;277;50.074;8.436;2023-07-20T02:36:17;19.30;99.90
582;DHT22;277;50.074;8.436;2023-07-20T02:38:46;19.20;99.90
582;DHT22;277;50.074;8.436;2023-07-20T02:41:15;19.10;99.90
582;DHT22;277;50.074;8.436;2023-07-20T02:43:43;19.00;99.90
582;DHT22;277;50.074;8.436;2023-07-20T02:46:11;19.00;99.90
582;DHT22;277;50.074;8.436;2023-07-20T02:48:39;19.00;99.90
582;DHT22;277;50.074;8.436;2023-07-20T02:51:06;18.90;99.90
582;DHT22;277;50.074;8.436;2023-07-20T02:53:35;18.80;99.90
582;DHT22;277;50.074;8.436;2023-07-20T02:56:04;18.70;99.90
582;DHT22;277;50.074;8.436;2023-07-20T02:58:34;18.70;99.90
582;DHT22;277;50.074;8.436;2023-07-20T03:01:03;18.60;99.90
582;DHT22;277;50.074;8.436;2023-07-20T03:03:31;18.50;99.90
582;DHT22;277;50.074;8.436;2023-07-20T03:06:05;18.50;99.90
582;DHT22;277;50.074;8.436;2023-07-20T03:08:35;18.50;99.90
582;DHT22;277;50.074;8.436;2023-07-20T03:11:03;18.60;99.90
582;DHT22;277;50.074;8.436;2023-07-20T03:13:31;18.50;99.90
582;DHT22;277;50.074;8.436;2023-07-20T03:16:00;18.50;99.90
582;DHT22;277;50.074;8.436;2023-07-20T03:18:28;18.50;99.90
582;DHT22;277;50.074;8.436;2023-07-20T03:20:57;18.60;99.90
582;DHT22;277;50.074;8.436;2023-07-20T03:23:24;18.70;99.90
582;DHT22;277;50.074;8.436;2023-07-20T03:25:53;18.70;99.90
582;DHT22;277;50.074;8.436;2023-07-20T03:28:21;18.60;99.90
582;DHT22;277;50.074;8.436;2023-07-20T03:30:53;18.60;99.90
582;DHT22;277;50.074;8.436;2023-07-20T03:33:24;18.50;99.90
582;DHT22;277;50.074;8.436;2023-07-20T03:35:52;18.70;99.90
582;DHT22;277;50.074;8.436;2023-07-20T03:38:20;19.00;99.90
582;DHT22;277;50.074;8.436;2023-07-20T03:40:51;19.40;99.90
582;DHT22;277;50.074;8.436;2023-07-20T03:43:20;19.70;99.90
582;DHT22;277;50.074;8.436;2023-07-20T03:45:48;19.80;99.90
582;DHT22;277;50.074;8.436;2023-07-20T03:48:17;19.70;99.90
582;DHT22;277;50.074;8.436;2023-07-20T03:50:49;19.90;99.90
582;DHT22;277;50.074;8.436;2023-07-20T03:53:18;19.90;99.90
582;DHT22;277;50.074;8.436;2023-07-20T03:55:46;19.90;99.90
582;DHT22;277;50.074;8.436;2023-07-20T03:58:14;20.20;99.90
582;DHT22;277;50.074;8.436;2023-07-20T04:00:44;20.10;99.90
582;DHT22;277;50.074;8.436;2023-07-20T04:03:13;19.90;99.90
582;DHT22;277;50.074;8.436;2023-07-20T04:05:42;19.90;99.90
582;DHT22;277;50.074;8.436;2023-07-20T04:08:11;19.80;99.90
582;DHT22;277;50.074;8.436;2023-07-20T04:10:42;19.60;99.90
582;DHT22;277;50.074;8.436;2023-07-20T04:13:11;19.70;99.90
582;DHT22;277;50.074;8.436;2023-07-20T04:15:39;19.80;99.90
582;DHT22;277;50.074;8.436;2023-07-20T04:18:06;19.70;99.90
582;DHT22;277;50.074;8.436;2023-07-20T04:20:34;19.70;99.90
582;DHT22;277;50.074;8.436;2023-07-20T04:23:02;19.80;99.90
582;DHT22;277;50.074;8.436;2023-07-20T04:25:32;19.80;99.90
582;DHT22;277;50.074;8.436;2023-07-20T04:28:06;19.70;99.90
582;DHT22;277;50.074;8.436;2023-07-20T04:30:37;19.80;99.90
582;DHT22;277;50.074;8.436;2023-07-20T04:33:06;19.80;99.90
582;DHT22;277;50.074;8.436;2023-07-20T04:35:51;19.80;99.90
582;DHT22;277;50.074;8.436;2023-07-20T04:38:19;19.70;99.90
582;DHT22;277;50.074;8.436;2023-07-20T04:40:49;19.70;99.90
582;DHT22;277;50.074;8.436;2023-07-20T04:43:18;19.60;99.90
582;DHT22;277;50.074;8.436;2023-07-20T04:45:46;19.60;99.90
582;DHT22;277;50.074;8.436;2023-07-20T04:48:15;19.50;99.90
582;DHT22;277;50.074;8.436;2023-07-20T04:50:46;19.40;99.90
582;DHT22;277;50.074;8.436;2023-07-20T04:53:15;19.40;99.90
582;DHT22;277;50.074;8.436;2023-07-20T04:55:49;19.30;99.90
582;DHT22;277;50.074;8.436;2023-07-20T04:58:19;19.30;99.90
582;DHT22;277;50.074;8.436;2023-07-20T05:00:48;19.30;99.90
582;DHT22;277;50.074;8.436;2023-07-20T05:03:16;19.20;99.90
582;DHT22;277;50.074;8.436;2023-07-20T05:05:44;19.30;99.90
582;DHT22;277;50.074;8.436;2023-07-20T05:08:15;19.30;99.90
582;DHT22;277;50.074;8.436;2023-07-20T05:10:43;19.40;99.90
582;DHT22;277;50.074;8.436;2023-07-20T05:13:13;19.30;99.90
582;DHT22;277;50.074;8.436;2023-07-20T05:15:41;19.00;99.90
582;DHT22;277;50.074;8.436;2023-07-20T05:18:09;19.10;99.90
582;DHT22;277;50.074;8.436;2023-07-20T05:20:36;19.40;99.90
582;DHT22;277;50.074;8.436;2023-07-20T05:23:04;19.30;99.90
582;DHT22;277;50.074;8.436;2023-07-20T05:25:32;19.40;99.90
582;DHT22;277;50.074;8.436;2023-07-20T05:28:00;19.50;99.90
582;DHT22;277;50.074;8.436;2023-07-20T05:30:30;19.60;99.90
582;DHT22;277;50.074;8.436;2023-07-20T05:32:57;19.70;99.90
582;DHT22;277;50.074;8.436;2023-07-20T05:35:26;19.70;99.90
582;DHT22;277;50.074;8.436;2023-07-20T05:37:54;19.70;99.90
582;DHT22;277;50.074;8.436;2023-07-20T05:40:22;19.90;99.90
582;DHT22;277;50.074;8.436;2023-07-20T05:42:50;20.00;99.90
582;DHT22;277;50.074;8.436;2023-07-20T05:45:20;19.90;99.90
582;DHT22;277;50.074;8.436;2023-07-20T05:47:49;20.00;99.90
582;DHT22;277;50.074;8.436;2023-07-20T05:50:17;20.00;99.90
582;DHT22;277;50.074;8.436;2023-07-20T05:52:45;20.10;99.90
582;DHT22;277;50.074;8.436;2023-07-20T05:55:14;20.10;99.90
582;DHT22;277;50.074;8.436;2023-07-20T05:57:42;19.90;99.90
582;DHT22;277;50.074;8.436;2023-07-20T06:00:11;19.80;99.90
582;DHT22;277;50.074;8.436;2023-07-20T06:02:41;19.90;99.90
582;DHT22;277;50.074;8.436;2023-07-20T06:05:11;19.80;99.90
582;DHT22;277;50.074;8.436;2023-07-20T06:07:39;19.70;99.90
582;DHT22;277;50.074;8.436;2023-07-20T06:10:07;19.70;99.90
582;DHT22;277;50.074;8.436;2023-07-20T06:12:35;19.70;99.90
582;DHT22;277;50.074;8.436;2023-07-20T06:15:05;19.60;99.90
582;DHT22;277;50.074;8.436;2023-07-20T06:17:33;19.60;99.90
582;DHT22;277;50.074;8.436;2023-07-20T06:20:04;19.50;99.90
582;DHT22;277;50.074;8.436;2023-07-20T06:22:34;19.50;99.90
582;DHT22;277;50.074;8.436;2023-07-20T06:25:03;19.40;99.90
582;DHT22;277;50.074;8.436;2023-07-20T06:27:31;19.20;99.90
582;DHT22;277;50.074;8.436;2023-07-20T06:29:59;19.10;99.90
582;DHT22;277;50.074;8.436;2023-07-20T06:32:27;19.10;99.90
582;DHT22;277;50.074;8.436;2023-07-20T06:34:55;19.20;99.90
582;DHT22;277;50.074;8.436;2023-07-20T06:37:23;19.30;99.90
582;DHT22;277;50.074;8.436;2023-07-20T06:39:52;19.40;99.90
582;DHT22;277;50.074;8.436;2023-07-20T06:42:23;19.40;99.90
582;DHT22;277;50.074;8.436;2023-07-20T06:44:51;19.60;99.90
582;DHT22;277;50.074;8.436;2023-07-20T06:47:19;19.60;99.90
582;DHT22;277;50.074;8.436;2023-07-20T06:49:47;19.70;99.90
582;DHT22;277;50.074;8.436;2023-07-20T06:52:15;19.70;99.90
582;DHT22;277;50.074;8.436;2023-07-20T06:54:43;19.70;99.90
582;DHT22;277;50.074;8.436;2023-07-20T06:57:12;19.80;99.90
582;DHT22;277;50.074;8.436;2023-07-20T06:59:44;19.90;99.90
582;DHT22;277;50.074;8.436;2023-07-20T07:02:13;20.00;99.90
582;DHT22;277;50.074;8.436;2023-07-20T07:04:41;20.10;99.90
582;DHT22;277;50.074;8.436;2023-07-20T07:07:09;20.00;99.90
582;DHT22;277;50.074;8.436;2023-07-20T07:09:37;20.00;99.90
582;DHT22;277;50.074;8.436;2023-07-20T07:12:06;20.10;99.90
582;DHT22;277;50.074;8.436;2023-07-20T07:14:35;20.10;99.90
582;DHT22;277;50.074;8.436;2023-07-20T07:17:05;20.10;99.90
582;DHT22;277;50.074;8.436;2023-07-20T07:19:33;20.30;99.90
582;DHT22;277;50.074;8.436;2023-07-20T07:22:03;20.50;99.90
582;DHT22;277;50.074;8.436;2023-07-20T07:24:31;20.80;99.90
582;DHT22;277;50.074;8.436;2023-07-20T07:27:01;20.90;99.90
582;DHT22;277;50.074;8.436;2023-07-20T07:29:29;21.00;99.90
582;DHT22;277;50.074;8.436;2023-07-20T07:31:58;21.10;99.90
582;DHT22;277;50.074;8.436;2023-07-20T07:34:26;21.20;99.90
582;DHT22;277;50.074;8.436;2023-07-20T07:36:54;21.30;99.90
582;DHT22;277;50.074;8.436;2023-07-20T07:39:22;21.30;99.90
582;DHT22;277;50.074;8.436;2023-07-20T07:41:53;21.30;99.90
582;DHT22;277;50.074;8.436;2023-07-20T07:44:21;21.20;99.90
582;DHT22;277;50.074;8.436;2023-07-20T07:46:50;21.10;99.90
582;DHT22;277;50.074;8.436;2023-07-20T07:49:19;21.00;99.90
582;DHT22;277;50.074;8.436;2023-07-20T07:51:47;21.00;99.90
582;DHT22;277;50.074;8.436;2023-07-20T07:54:15;21.30;99.90
582;DHT22;277;50.074;8.436;2023-07-20T07:56:43;21.60;99.90
582;DHT22;277;50.074;8.436;2023-07-20T07:59:12;21.70;99.90
582;DHT22;277;50.074;8.436;2023-07-20T08:01:40;21.80;99.90
582;DHT22;277;50.074;8.436;2023-07-20T08:04:08;22.10;99.90
582;DHT22;277;50.074;8.436;2023-07-20T08:06:37;22.20;99.90
582;DHT22;277;50.074;8.436;2023-07-20T08:09:05;22.30;99.90
582;DHT22;277;50.074;8.436;2023-07-20T08:11:33;22.60;99.90
582;DHT22;277;50.074;8.436;2023-07-20T08:14:01;22.50;99.90
582;DHT22;277;50.074;8.436;2023-07-20T08:16:29;22.40;99.90
582;DHT22;277;50.074;8.436;2023-07-20T08:18:57;22.60;99.90
582;DHT22;277;50.074;8.436;2023-07-20T08:21:26;22.70;99.90
582;DHT22;277;50.074;8.436;2023-07-20T08:23:55;22.60;99.90
582;DHT22;277;50.074;8.436;2023-07-20T08:26:23;22.30;99.90
582;DHT22;277;50.074;8.436;2023-07-20T08:28:52;22.20;99.90
582;DHT22;277;50.074;8.436;2023-07-20T08:31:20;22.00;99.90
582;DHT22;277;50.074;8.436;2023-07-20T08:33:48;21.80;99.90
582;DHT22;277;50.074;8.436;2023-07-20T08:36:16;21.80;99.90
582;DHT22;277;50.074;8.436;2023-07-20T08:38:44;21.90;99.90
582;DHT22;277;50.074;8.436;2023-07-20T08:41:14;22.20;99.90
582;DHT22;277;50.074;8.436;2023-07-20T08:43:42;22.40;99.90
582;DHT22;277;50.074;8.436;2023-07-20T08:46:12;22.50;99.90
582;DHT22;277;50.074;8.436;2023-07-20T08:48:42;22.60;99.90
582;DHT22;277;50.074;8.436;2023-07-20T08:51:11;22.90;99.90
582;DHT22;277;50.074;8.436;2023-07-20T08:53:40;23.10;99.90
582;DHT22;277;50.074;8.436;2023-07-20T08:56:09;23.10;99.90
582;DHT22;277;50.074;8.436;2023-07-20T08:58:39;23.20;99.90
582;DHT22;277;50.074;8.436;2023-07-20T09:01:09;23.10;99.90
582;DHT22;277;50.074;8.436;2023-07-20T09:03:38;23.00;99.90
582;DHT22;277;50.074;8.436;2023-07-20T09:06:06;23.00;99.90
582;DHT22;277;50.074;8.436;2023-07-20T09:08:38;23.20;99.90
582;DHT22;277;50.074;8.436;2023-07-20T09:11:06;23.20;99.90
582;DHT22;277;50.074;8.436;2023-07-20T09:13:34;23.40;99.90
582;DHT22;277;50.074;8.436;2023-07-20T09:16:04;23.40;99.90
582;DHT22;277;50.074;8.436;2023-07-20T09:18:33;23.30;99.90
582;DHT22;277;50.074;8.436;2023-07-20T09:21:03;23.00;99.90
582;DHT22;277;50.074;8.436;2023-07-20T09:23:32;23.00;99.90
582;DHT22;277;50.074;8.436;2023-07-20T09:26:01;23.10;99.90
582;DHT22;277;50.074;8.436;2023-07-20T09:28:41;23.10;99.90
582;DHT22;277;50.074;8.436;2023-07-20T09:31:18;23.40;99.90
582;DHT22;277;50.074;8.436;2023-07-20T09:33:47;23.70;99.90
582;DHT22;277;50.074;8.436;2023-07-20T09:36:18;24.20;99.90
582;DHT22;277;50.074;8.436;2023-07-20T09:39:06;24.40;99.90
582;DHT22;277;50.074;8.436;2023-07-20T09:41:40;24.30;99.90
582;DHT22;277;50.074;8.436;2023-07-20T09:44:14;24.00;99.90
582;DHT22;277;50.074;8.436;2023-07-20T09:46:47;23.70;99.90
582;DHT22;277;50.074;8.436;2023-07-20T09:49:19;23.50;99.90
582;DHT22;277;50.074;8.436;2023-07-20T09:51:50;23.30;99.90
582;DHT22;277;50.074;8.436;2023-07-20T09:54:21;23.20;99.90
582;DHT22;277;50.074;8.436;2023-07-20T09:56:50;23.10;99.90
582;DHT22;277;50.074;8.436;2023-07-20T09:59:19;23.10;99.90
582;DHT22;277;50.074;8.436;2023-07-20T10:01:49;23.30;99.90
582;DHT22;277;50.074;8.436;2023-07-20T10:04:21;23.80;99.90
582;DHT22;277;50.074;8.436;2023-07-20T10:06:52;24.60;99.90
582;DHT22;277;50.074;8.436;2023-07-20T10:09:24;25.10;99.90
582;DHT22;277;50.074;8.436;2023-07-20T10:11:53;25.30;99.10
582;DHT22;277;50.074;8.436;2023-07-20T10:14:44;25.00;99.00
582;DHT22;277;50.074;8.436;2023-07-20T10:17:18;24.70;99.30
582;DHT22;277;50.074;8.436;2023-07-20T10:19:47;24.80;99.20
582;DHT22;277;50.074;8.436;2023-07-20T10:22:24;24.80;99.40
582;DHT22;277;50.074;8.436;2023-07-20T10:24:54;24.70;99.70
582;DHT22;277;50.074;8.436;2023-07-20T10:27:26;24.60;99.90
582;DHT22;277;50.074;8.436;2023-07-20T10:29:54;24.60;99.80
582;DHT22;277;50.074;8.436;2023-07-20T10:32:25;24.60;99.80
582;DHT22;277;50.074;8.436;2023-07-20T10:34:55;24.40;99.50
582;DHT22;277;50.074;8.436;2023-07-20T10:37:49;24.40;99.90
582;DHT22;277;50.074;8.436;2023-07-20T10:40:27;24.50;99.70
582;DHT22;277;50.074;8.436;2023-07-20T10:43:01;24.40;99.80
582;DHT22;277;50.074;8.436;2023-07-20T10:45:39;24.40;99.80
582;DHT22;277;50.074;8.436;2023-07-20T10:48:15;24.40;99.70
582;DHT22;277;50.074;8.436;2023-07-20T10:50:43;24.30;99.60
582;DHT22;277;50.074;8.436;2023-07-20T10:53:13;24.20;99.50
582;DHT22;277;50.074;8.436;2023-07-20T10:55:42;24.10;99.90
582;DHT22;277;50.074;8.436;2023-07-20T10:58:11;24.00;99.20
582;DHT22;277;50.074;8.436;2023-07-20T11:01:01;23.90;99.80
582;DHT22;277;50.074;8.436;2023-07-20T11:03:34;23.60;99.80
582;DHT22;277;50.074;8.436;2023-07-20T11:06:29;23.60;99.80
582;DHT22;277;50.074;8.436;2023-07-20T11:09:04;23.90;99.60
582;DHT22;277;50.074;8.436;2023-07-20T11:11:36;24.20;98.90
582;DHT22;277;50.074;8.436;2023-07-20T11:14:07;24.20;98.70
582;DHT22;277;50.074;8.436;2023-07-20T11:16:40;24.20;98.80
582;DHT22;277;50.074;8.436;2023-07-20T11:19:17;24.30;98.60
582;DHT22;277;50.074;8.436;2023-07-20T11:21:51;24.30;98.50
582;DHT22;277;50.074;8.436;2023-07-20T11:24:29;24.60;99.30
582;DHT22;277;50.074;8.436;2023-07-20T11:26:58;24.70;97.60
582;DHT22;277;50.074;8.436;2023-07-20T11:29:26;25.00;97.70
582;DHT22;277;50.074;8.436;2023-07-20T11:32:00;25.40;96.90
582;DHT22;277;50.074;8.436;2023-07-20T11:34:31;25.70;96.70
582;DHT22;277;50.074;8.436;2023-07-20T11:37:00;25.60;96.80
582;DHT22;277;50.074;8.436;2023-07-20T11:39:32;25.50;96.50
582;DHT22;277;50.074;8.436;2023-07-20T11:42:00;25.30;96.80
582;DHT22;277;50.074;8.436;2023-07-20T11:44:29;25.20;96.70
582;DHT22;277;50.074;8.436;2023-07-20T11:47:01;24.90;97.90
582;DHT22;277;50.074;8.436;2023-07-20T11:49:35;24.80;97.20
582;DHT22;277;50.074;8.436;2023-07-20T11:52:05;24.90;97.50
582;DHT22;277;50.074;8.436;2023-07-20T11:54:34;24.80;97.50
582;DHT22;277;50.074;8.436;2023-07-20T11:57:03;24.70;97.90
582;DHT22;277;50.074;8.436;2023-07-20T11:59:32;24.80;98.20
582;DHT22;277;50.074;8.436;2023-07-20T12:02:01;24.80;98.30
582;DHT22;277;50.074;8.436;2023-07-20T12:04:32;24.90;98.80
582;DHT22;277;50.074;8.436;2023-07-20T12:07:01;24.70;98.30
582;DHT22;277;50.074;8.436;2023-07-20T12:09:29;24.60;98.70
582;DHT22;277;50.074;8.436;2023-07-20T12:12:18;24.60;99.70
582;DHT22;277;50.074;8.436;2023-07-20T12:14:47;24.60;99.70
582;DHT22;277;50.074;8.436;2023-07-20T12:17:15;24.60;99.90
582;DHT22;277;50.074;8.436;2023-07-20T12:19:45;24.60;98.20
582;DHT22;277;50.074;8.436;2023-07-20T12:22:13;24.40;97.80
582;DHT22;277;50.074;8.436;2023-07-20T12:24:41;24.50;98.80
582;DHT22;277;50.074;8.436;2023-07-20T12:27:13;24.60;99.20
582;DHT22;277;50.074;8.436;2023-07-20T12:29:41;24.70;99.50
582;DHT22;277;50.074;8.436;2023-07-20T12:32:09;24.70;98.00
582;DHT22;277;50.074;8.436;2023-07-20T12:34:37;25.10;99.00
582;DHT22;277;50.074;8.436;2023-07-20T12:37:07;25.10;98.30
582;DHT22;277;50.074;8.436;2023-07-20T12:39:38;25.00;96.90
582;DHT22;277;50.074;8.436;2023-07-20T12:42:08;25.00;96.60
582;DHT22;277;50.074;8.436;2023-07-20T12:44:35;25.10;96.70
582;DHT22;277;50.074;8.436;2023-07-20T12:47:04;25.20;95.50
582;DHT22;277;50.074;8.436;2023-07-20T12:49:32;25.20;95.60
582;DHT22;277;50.074;8.436;2023-07-20T12:52:00;25.30;96.00
582;DHT22;277;50.074;8.436;2023-07-20T12:54:29;25.90;96.80
582;DHT22;277;50.074;8.436;2023-07-20T12:56:58;26.80;95.10
582;DHT22;277;50.074;8.436;2023-07-20T12:59:29;27.70;93.80
582;DHT22;277;50.074;8.436;2023-07-20T13:01:56;28.60;93.00
582;DHT22;277;50.074;8.436;2023-07-20T13:04:24;29.30;91.10
582;DHT22;277;50.074;8.436;2023-07-20T13:06:52;29.50;90.30
582;DHT22;277;50.074;8.436;2023-07-20T13:09:21;29.60;88.10
582;DHT22;277;50.074;8.436;2023-07-20T13:11:50;29.70;88.90
582;DHT22;277;50.074;8.436;2023-07-20T13:14:19;30.20;86.80
582;DHT22;277;50.074;8.436;2023-07-20T13:16:47;30.60;85.50
582;DHT22;277;50.074;8.436;2023-07-20T13:19:15;30.70;83.50
582;DHT22;277;50.074;8.436;2023-07-20T13:21:43;30.80;83.20
582;DHT22;277;50.074;8.436;2023-07-20T13:24:11;30.90;80.30
582;DHT22;277;50.074;8.436;2023-07-20T13:26:39;30.60;80.80
582;DHT22;277;50.074;8.436;2023-07-20T13:29:08;30.30;79.60
582;DHT22;277;50.074;8.436;2023-07-20T13:31:36;29.90;80.10
582;DHT22;277;50.074;8.436;2023-07-20T13:34:07;29.40;80.70
582;DHT22;277;50.074;8.436;2023-07-20T13:36:35;29.30;82.70
582;DHT22;277;50.074;8.436;2023-07-20T13:39:03;29.80;81.40
582;DHT22;277;50.074;8.436;2023-07-20T13:41:32;30.40;79.70
582;DHT22;277;50.074;8.436;2023-07-20T13:44:01;30.80;81.90
582;DHT22;277;50.074;8.436;2023-07-20T13:46:33;30.50;79.80
582;DHT22;277;50.074;8.436;2023-07-20T13:49:04;29.90;78.80
582;DHT22;277;50.074;8.436;2023-07-20T13:51:39;28.90;79.70
582;DHT22;277;50.074;8.436;2023-07-20T13:54:07;28.40;83.40
582;DHT22;277;50.074;8.436;2023-07-20T13:56:38;28.00;80.60
582;DHT22;277;50.074;8.436;2023-07-20T13:59:08;27.90;82.00
582;DHT22;277;50.074;8.436;2023-07-20T14:01:37;27.80;82.10
582;DHT22;277;50.074;8.436;2023-07-20T14:04:06;27.60;83.80
582;DHT22;277;50.074;8.436;2023-07-20T14:06:35;27.20;81.70
582;DHT22;277;50.074;8.436;2023-07-20T14:09:03;27.00;82.50
582;DHT22;277;50.074;8.436;2023-07-20T14:11:31;26.90;82.50
582;DHT22;277;50.074;8.436;2023-07-20T14:14:02;26.70;82.60
582;DHT22;277;50.074;8.436;2023-07-20T14:16:30;26.60;83.00
582;DHT22;277;50.074;8.436;2023-07-20T14:19:00;26.50;85.00
582;DHT22;277;50.074;8.436;2023-07-20T14:21:30;26.20;86.40
582;DHT22;277;50.074;8.436;2023-07-20T14:23:58;26.10;87.90
582;DHT22;277;50.074;8.436;2023-07-20T14:26:28;25.80;86.80
582;DHT22;277;50.074;8.436;2023-07-20T14:28:59;25.70;87.30
582;DHT22;277;50.074;8.436;2023-07-20T14:31:28;25.70;86.00
582;DHT22;277;50.074;8.436;2023-07-20T14:33:58;25.60;85.70
582;DHT22;277;50.074;8.436;2023-07-20T14:36:27;25.70;84.10
582;DHT22;277;50.074;8.436;2023-07-20T14:38:56;25.60;84.80
582;DHT22;277;50.074;8.436;2023-07-20T14:41:24;25.60;86.40
582;DHT22;277;50.074;8.436;2023-07-20T14:43:53;25.50;87.00
582;DHT22;277;50.074;8.436;2023-07-20T14:46:20;25.30;88.00
582;DHT22;277;50.074;8.436;2023-07-20T14:48:48;25.20;88.90
582;DHT22;277;50.074;8.436;2023-07-20T14:51:18;25.10;89.10
582;DHT22;277;50.074;8.436;2023-07-20T14:53:47;24.90;88.60
582;DHT22;277;50.074;8.436;2023-07-20T14:56:16;24.90;90.10
582;DHT22;277;50.074;8.436;2023-07-20T14:58:43;24.70;90.20
582;DHT22;277;50.074;8.436;2023-07-20T15:01:11;24.70;89.50
582;DHT22;277;50.074;8.436;2023-07-20T15:03:39;24.60;87.90
582;DHT22;277;50.074;8.436;2023-07-20T15:06:17;24.60;90.70
582;DHT22;277;50.074;8.436;2023-07-20T15:08:45;24.60;89.00
582;DHT22;277;50.074;8.436;2023-07-20T15:11:14;24.70;89.60
582;DHT22;277;50.074;8.436;2023-07-20T15:13:42;24.90;88.70
582;DHT22;277;50.074;8.436;2023-07-20T15:16:10;25.00;86.80
582;DHT22;277;50.074;8.436;2023-07-20T15:18:38;25.10;87.80
582;DHT22;277;50.074;8.436;2023-07-20T15:21:14;25.20;86.10
582;DHT22;277;50.074;8.436;2023-07-20T15:23:42;25.40;86.60
582;DHT22;277;50.074;8.436;2023-07-20T15:26:10;25.50;87.30
582;DHT22;277;50.074;8.436;2023-07-20T15:28:40;25.80;84.70
582;DHT22;277;50.074;8.436;2023-07-20T15:31:08;26.30;83.90
582;DHT22;277;50.074;8.436;2023-07-20T15:33:36;26.80;82.50
582;DHT22;277;50.074;8.436;2023-07-20T15:36:04;27.00;83.60
582;DHT22;277;50.074;8.436;2023-07-20T15:38:33;26.80;83.30
582;DHT22;277;50.074;8.436;2023-07-20T15:41:01;27.00;85.40
582;DHT22;277;50.074;8.436;2023-07-20T15:43:30;27.00;83.10
582;DHT22;277;50.074;8.436;2023-07-20T15:46:43;27.00;83.70
582;DHT22;277;50.074;8.436;2023-07-20T15:49:12;26.80;84.40
582;DHT22;277;50.074;8.436;2023-07-20T15:51:40;26.50;84.80
582;DHT22;277;50.074;8.436;2023-07-20T15:54:10;26.20;84.50
582;DHT22;277;50.074;8.436;2023-07-20T15:56:39;26.00;83.50
582;DHT22;277;50.074;8.436;2023-07-20T15:59:09;25.80;83.70
582;DHT22;277;50.074;8.436;2023-07-20T16:01:39;25.70;84.10
582;DHT22;277;50.074;8.436;2023-07-20T16:04:09;25.50;85.80
582;DHT22;277;50.074;8.436;2023-07-20T16:06:37;25.60;86.40
582;DHT22;277;50.074;8.436;2023-07-20T16:09:05;25.60;84.50
582;DHT22;277;50.074;8.436;2023-07-20T16:11:33;25.60;87.40
582;DHT22;277;50.074;8.436;2023-07-20T16:14:06;25.60;85.10
582;DHT22;277;50.074;8.436;2023-07-20T16:16:34;25.60;85.60
582;DHT22;277;50.074;8.436;2023-07-20T16:19:04;25.50;86.10
582;DHT22;277;50.074;8.436;2023-07-20T16:21:32;25.40;89.00
582;DHT22;277;50.074;8.436;2023-07-20T16:24:00;25.40;85.20
582;DHT22;277;50.074;8.436;2023-07-20T16:26:28;25.40;85.40
582;DHT22;277;50.074;8.436;2023-07-20T16:28:56;25.50;84.30
582;DHT22;277;50.074;8.436;2023-07-20T16:31:28;25.50;87.00
582;DHT22;277;50.074;8.436;2023-07-20T16:33:56;25.50;84.80
582;DHT22;277;50.074;8.436;2023-07-20T16:36:28;25.40;85.00
582;DHT22;277;50.074;8.436;2023-07-20T16:39:18;25.40;84.80
582;DHT22;277;50.074;8.436;2023-07-20T16:41:49;25.20;85.00
582;DHT22;277;50.074;8.436;2023-07-20T16:44:20;25.20;85.80
582;DHT22;277;50.074;8.436;2023-07-20T16:46:48;25.30;85.00
582;DHT22;277;50.074;8.436;2023-07-20T16:49:19;25.30;85.40
582;DHT22;277;50.074;8.436;2023-07-20T16:51:48;25.40;85.60
582;DHT22;277;50.074;8.436;2023-07-20T16:54:16;25.40;85.40